• Join FlightAware (Why Join?)
  • Login
  • US Flag 
04:50PM EDT


 

Airport Tracker/Info


-or-


 

Live Flight TrackerFlight Track Log ✈ EJA396 ✈ 20-Jun-2013 ✈ KCAK - KXNA

Flight Track Log - Related Links

Times and Time Zones

All times are in EDT time to prevent confusion due to time zone crossing. See the EJA396 flight status page for this flight to view local times or setup timezone preferences in your user account.

Time Position Orientation Groundspeed Altitude Reporting Facility
EDT Latitude Longitude Course Direction KTS MPH feet Rate Location/Type
04:33PM 40.9794 -81.3808 244° Southwest 203 234 6,900  Level Cleveland Center
04:34PM 40.9319 -81.3333 143° Southeast 185 213 9,200 2,640 Climbing Cleveland Center
04:35PM 40.8506 -81.3517 190° South 217 250 12,200 2,400 Climbing Cleveland Center
04:36PM 40.7525 -81.3422 176° South 320 368 14,000 2,280 Climbing Cleveland Center
04:37PM 40.6400 -81.3439 181° South 365 420 16,800 2,760 Climbing Cleveland Center
04:38PM 40.2348 -82.3350 244° Southwest  Level FlightAware Approximate
04:38PM 40.5892 -81.4608 240° Southwest 312 359 19,600  Level Cleveland Center
04:40PM 40.5097 -81.6764 244° Southwest 363 418 25,000 2,640 Climbing Indianapolis Center
04:41PM 40.4547 -81.7964 239° Southwest 380 437 27,600 2,580 Climbing Indianapolis Center
04:42PM 40.3708 -81.9178 228° Southwest 383 441 30,400 2,040 Climbing Indianapolis Center
04:43PM 40.2992 -82.0225 228° Southwest 381 438 31,900 1,380 Climbing Indianapolis Center
04:44PM 40.2242 -82.1286 227° Southwest 391 450 33,300 1,440 Climbing Indianapolis Center
04:45PM 40.1458 -82.2408 228° Southwest 406 467 34,900 1,500 Climbing Indianapolis Center
04:46PM 40.0675 -82.3533 228° Southwest 413 475 36,500 1,740 Climbing Indianapolis Center
04:47PM 39.9900 -82.4636 227° Southwest 411 473 38,600 1,680 Climbing Indianapolis Center
04:48PM 39.9164 -82.5672 227° Southwest 394 453 40,000 660 Climbing Indianapolis Center
04:49PM 39.8489 -82.6858 233° Southwest 405 466 40,000  Level Indianapolis Center
04:50PM 39.7925 -82.8453 245° Southwest 413 475 40,000  Level Indianapolis Center
04:51PM 39.7436 -82.9850 246° West 417 480 40,000  Level Indianapolis Center
04:52PM 39.6942 -83.1261 246° West 421 484 40,000  Level Indianapolis Center
04:53PM 39.6564 -83.2739 252° West 424 488 40,000  Level Indianapolis Center
04:54PM 39.6194 -83.4211 252° West 420 483 40,000  Level Indianapolis Center
04:56PM 39.5828 -83.5694 252° West 422 486 40,000  Level Indianapolis Center
04:57PM 39.5461 -83.7167 252° West 424 488 40,000  Level Indianapolis Center
04:58PM 39.5094 -83.8631 252° West 422 486 40,000  Level Indianapolis Center
04:59PM 39.4725 -84.0103 252° West 424 488 40,000  Level Indianapolis Center
05:00PM 39.4350 -84.1567 252° West 424 488 40,000  Level Indianapolis Center
05:01PM 39.3914 -84.3275 252° West 426 490 40,000  Level Indianapolis Center
05:02PM 39.3542 -84.4742 252° West 426 490 40,000  Level Indianapolis Center
05:03PM 39.3161 -84.6203 251° West 425 489 40,000  Level Indianapolis Center
05:04PM 39.2778 -84.7661 251° West 425 489 40,000  Level Indianapolis Center
05:05PM 39.2378 -84.9228 252° West 428 493 40,000  Level Indianapolis Center
05:06PM 39.1986 -85.0661 251° West 425 489 40,000  Level Indianapolis Center
05:07PM 39.1608 -85.2122 252° West 428 493 40,000  Level Indianapolis Center
05:08PM 39.1208 -85.3556 250° West 425 489 40,000  Level Indianapolis Center
05:09PM 39.0831 -85.4992 251° West 425 489 40,000  Level Indianapolis Center
05:10PM 39.0356 -85.6719 251° West 425 489 40,000  Level Indianapolis Center
05:11PM 38.9972 -85.8172 251° West 427 491 40,000  Level Indianapolis Center
05:12PM 38.9572 -85.9614 250° West 428 493 40,000  Level Indianapolis Center
05:13PM 38.9172 -86.1075 251° West 430 495 40,000  Level Indianapolis Center
05:14PM 38.8767 -86.2519 250° West 432 497 40,000  Level Indianapolis Center
05:15PM 38.8372 -86.3969 251° West 431 496 40,000  Level Indianapolis Center
05:16PM 38.7969 -86.5419 250° West 432 497 40,000  Level Indianapolis Center
05:17PM 38.7475 -86.7150 250° West 431 496 40,000  Level Indianapolis Center
05:18PM 38.7061 -86.8589 250° West 432 497 40,000  Level Indianapolis Center
05:19PM 38.6661 -87.0025 250° West 431 496 40,000  Level Indianapolis Center
05:20PM 38.6250 -87.1458 250° West 433 498 40,000  Level Indianapolis Center
05:21PM 38.5842 -87.2892 250° West 433 498 40,000  Level Indianapolis Center
05:22PM 38.5347 -87.4603 250° West 431 496 40,000  Level Indianapolis Center
05:23PM 38.4928 -87.6017 249° West 430 495 40,000  Level Indianapolis Center
05:24PM 38.4514 -87.7436 250° West 427 491 40,000  Level Indianapolis Center
05:26PM 38.4089 -87.8864 249° West 431 496 40,000  Level Indianapolis Center
05:27PM 38.3667 -88.0281 249° West 429 494 40,000  Level Indianapolis Center
05:28PM 38.3244 -88.1694 249° West 428 493 40,000  Level Indianapolis Center
05:29PM 38.2733 -88.3414 249° West 431 496 40,000  Level Indianapolis Center
05:30PM 38.2317 -88.4858 250° West 433 498 40,000  Level Kansas City Center
05:31PM 38.1786 -88.6592 249° West 435 501 40,000  Level Kansas City Center
05:32PM 38.1367 -88.7950 249° West 437 503 40,000  Level Kansas City Center
05:33PM 38.0947 -88.9369 249° West 433 498 40,000  Level Kansas City Center
05:34PM 38.0481 -89.0806 248° West 436 502 40,000  Level Kansas City Center
05:35PM 38.0047 -89.2228 249° West 435 501 40,000  Level Kansas City Center
05:36PM 37.9619 -89.3653 249° West 433 498 40,000  Level Kansas City Center
05:37PM 37.9186 -89.5389 252° West 431 496 40,000  Level Kansas City Center
05:38PM 37.8828 -89.6828 253° West 429 494 40,000  Level Kansas City Center
05:39PM 37.8461 -89.8278 252° West 431 496 40,000  Level Kansas City Center
05:40PM 37.8092 -89.9733 252° West 433 498 40,000  Level Kansas City Center
05:41PM 37.7728 -90.1183 252° West 433 498 40,000  Level Kansas City Center
05:42PM 37.7350 -90.2636 252° West 433 498 40,000  Level Kansas City Center
05:43PM 37.6978 -90.4083 252° West 433 498 40,000  Level Kansas City Center
05:44PM 37.6514 -90.5858 252° West 434 499 40,000  Level Kansas City Center
05:45PM 37.6150 -90.7267 252° West 434 499 40,000  Level Kansas City Center
05:46PM 37.5758 -90.8775 252° West 436 502 40,000  Level Kansas City Center
05:47PM 37.5367 -91.0228 251° West 438 504 40,000  Level Kansas City Center
05:48PM 37.4994 -91.1678 252° West 435 501 40,000  Level Kansas City Center
05:49PM 37.4600 -91.3133 251° West 437 503 40,000  Level Kansas City Center
05:50PM 37.4219 -91.4575 252° West 434 499 40,000  Level Kansas City Center
05:51PM 37.3461 -91.6108 238° Southwest 433 498 40,000  Level Kansas City Center
05:53PM 37.2653 -91.7231 228° Southwest 432 497 40,000  Level Kansas City Center
05:54PM 37.1850 -91.8350 228° Southwest 431 496 40,000 -660 Level Kansas City Center
05:55PM 37.1244 -91.9575 238° Southwest 424 488 38,700 -1,620 Descending Kansas City Center
05:56PM 37.1042 -92.0994 260° West 412 474 36,700 -1,980 Descending Kansas City Center
05:57PM 37.0822 -92.2481 260° West 418 481 34,700 -1,980 Descending Kansas City Center
05:58PM 37.0578 -92.4006 259° West 428 493 32,700 -2,640 Descending Kansas City Center
05:59PM 37.0289 -92.5847 259° West 438 504 29,300 -3,120 Descending Kansas City Center
06:00PM 37.0047 -92.7369 259° West 443 510 26,300 -2,880 Descending Kansas City Center
06:01PM 36.9811 -92.8858 259° West 441 507 23,400 -2,760 Descending Kansas City Center
06:02PM 36.9594 -93.0194 259° West 412 474 20,700 -2,520 Descending Kansas City Center
06:03PM 36.9383 -93.1469 258° West 387 445 18,200 -2,520 Descending Kansas City Center
06:04PM 36.9144 -93.2750 257° West 380 437 15,600 -2,940 Descending Kansas City Center
06:05PM 36.8353 -93.3806 227° Southwest 368 423 12,200 -2,760 Descending Kansas City Center
06:06PM 36.7683 -93.4700 227° Southwest 357 411 10,000 -1,080 Descending Kansas City Center
06:07PM 36.7033 -93.5508 225° Southwest 341 392 10,000  Level Kansas City Center
06:08PM 36.6583 -93.6386 237° Southwest 320 368 10,000  Level Kansas City Center
06:09PM 36.6339 -93.7425 254° West 315 362 10,000  Level Kansas City Center
06:10PM 36.6094 -93.8572 255° West 316 364 10,000  Level Kansas City Center
06:11PM 36.5847 -93.9614 254° West 316 364 10,000 -1,200 Level Kansas City Center
06:12PM 36.5650 -94.0531 255° West 283 326 7,600 -2,040 Descending Kansas City Center
06:13PM 36.5406 -94.1550 253° West 268 308 5,900 -1,740 Descending Kansas City Center
06:14PM 36.5269 -94.2158 254° West 214 246 4,100 -1,500 Descending Kansas City Center
06:15PM 36.4947 -94.2667 232° Southwest 196 226 2,900 -600 Descending Kansas City Center
06:16PM 36.4494 -94.3031 213° Southwest 195 224 2,900  Level Kansas City Center
06:17PM 36.4039 -94.3253 201° Southwest 183 211 2,900 -60 Level Kansas City Center
06:18PM 36.3631 -94.3408 197° South 167 192 2,800 -120 Descending Kansas City Center